Sparti, Greece
Current Conditions -  °F | °C
As of 9:50 PM on Saturday 25 Oct 2014 (Local Time) from LGKL Reporting Station
Scattered Clouds Scattered Clouds  
Wind Chill: 55°   Ceiling: Unl
Heat Index: 55°   Visibility: 6mi
Dew Point: 52°   Wind: 5mph
Humidity: 88%   Direction: 320°NW
Pressure: 29.91"   Gusts: NA
Location:  37.07°N, 22.43°E
Report Text: LGKL 251950Z 32004KT 9999 FEW020 SCT080 13/11 Q1013
Loading
Personal Weather Stations






























Interactive Weather Map
Tropical Storm Tracking
New forecast layout! Learn more

10-Day Weather Forecast

Advertisements
Track Severe Weather on mobile